Time;durP1;ratioP1;P1;durP2;ratioP2;P2;SDS_P1;SDS_P2;PMS_P1;PMS_P2;Temp;Humidity;BMP_temperature;BMP_pressure;BME280_temperature;BME280_humidity;BME280_pressure;Samples;Min_cycle;Max_cycle;Signal;HPM_P1;HPM_P2
2021/04/13 00:01:12;;;;;;;2.15;1.90;;;;;;;-3.15;96.24;93941.78;2098521;28;20024;-82
2021/04/13 00:02:29;;;;;;;1.67;1.58;;;;;;;-3.15;95.26;93942.53;2091918;28;20455;-83
2021/04/13 00:03:30;;;;;;;1.70;1.60;;;;;;;-3.13;94.19;93952.69;2092104;28;20443;-84
2021/04/13 00:04:31;;;;;;;2.05;1.80;;;;;;;-3.08;93.74;93948.06;2106602;28;20462;-82
2021/04/13 00:05:37;;;;;;;1.85;1.75;;;;;;;-3.08;93.42;93934.97;2106371;28;21005;-83
2021/04/13 00:06:48;;;;;;;2.10;2.00;;;;;;;-3.09;94.38;93937.91;2098379;28;20032;-82
2021/04/13 00:07:50;;;;;;;2.03;1.92;;;;;;;-3.14;95.06;93949.31;2091585;28;20478;-81
2021/04/13 00:08:55;;;;;;;2.20;2.03;;;;;;;-2.96;94.75;93942.22;2082888;28;20428;-83
2021/04/13 00:09:59;;;;;;;2.22;2.03;;;;;;;-3.04;95.28;93940.38;2105886;28;20990;-84
2021/04/13 00:11:04;;;;;;;1.77;1.67;;;;;;;-3.15;95.72;93945.16;2099297;28;20987;-84
2021/04/13 00:12:12;;;;;;;2.00;1.90;;;;;;;-3.20;97.04;93945.31;2104368;28;20456;-83
2021/04/13 00:13:14;;;;;;;2.05;1.95;;;;;;;-3.22;97.61;93941.47;2102709;28;20491;-82
2021/04/13 00:14:18;;;;;;;2.22;2.05;;;;;;;-3.14;99.04;93938.84;2098382;28;20518;-83
2021/04/13 00:15:34;;;;;;;2.33;1.88;;;;;;;-3.28;99.35;93940.84;2098704;28;20508;-84
2021/04/13 00:16:35;;;;;;;1.95;1.85;;;;;;;-3.31;99.35;93938.84;2106822;28;20481;-84
2021/04/13 00:17:37;;;;;;;2.28;1.60;;;;;;;-3.32;98.55;93942.53;2090115;28;20527;-83
2021/04/13 00:18:42;;;;;;;2.38;2.17;;;;;;;-3.35;97.78;93938.69;2090462;28;21042;-86
2021/04/13 00:20:05;;;;;;;2.10;2.00;;;;;;;-3.32;97.56;93945.16;2094084;28;20493;-82
2021/04/13 00:21:12;;;;;;;2.10;1.95;;;;;;;-3.35;98.61;93936.06;2095713;28;20521;-82
2021/04/13 00:22:13;;;;;;;2.05;1.95;;;;;;;-3.39;98.79;93935.16;2091542;28;20570;-82
2021/04/13 00:23:14;;;;;;;1.88;1.77;;;;;;;-3.42;97.75;93941.00;2090148;28;20495;-83
2021/04/13 00:24:19;;;;;;;1.98;1.88;;;;;;;-3.54;96.61;93940.84;2106539;28;20035;-84
2021/04/13 00:25:32;;;;;;;2.25;2.05;;;;;;;-3.49;96.49;93945.16;2107100;28;20499;-83
2021/04/13 00:26:33;;;;;;;1.67;1.55;;;;;;;-3.43;96.22;93938.69;2106225;28;20446;-84
2021/04/13 00:27:34;;;;;;;2.40;2.03;;;;;;;-3.44;96.03;93935.31;2089765;28;20504;-83
2021/04/13 00:28:49;;;;;;;1.95;1.85;;;;;;;-3.42;95.49;93948.09;2096748;28;20048;-82
2021/04/13 00:29:50;;;;;;;1.63;1.52;;;;;;;-3.46;95.92;93940.09;2085737;28;20512;-84
2021/04/13 00:30:59;;;;;;;1.98;1.75;;;;;;;-3.42;96.38;93940.25;2098102;28;20530;-83
2021/04/13 00:32:02;;;;;;;1.90;1.80;;;;;;;-3.42;95.15;93940.25;2092076;28;20467;-83
2021/04/13 00:33:05;;;;;;;2.22;2.03;;;;;;;-3.48;94.58;93949.28;2106755;28;20035;-82
2021/04/13 00:34:30;;;;;;;1.80;1.70;;;;;;;-3.39;95.12;93942.22;2115360;27;20469;-84
2021/04/13 00:35:36;;;;;;;1.92;1.83;;;;;;;-3.42;94.50;93938.41;2106236;28;20447;-84
2021/04/13 00:36:38;;;;;;;1.90;1.80;;;;;;;-3.41;95.13;93949.63;2098874;28;20538;-84
2021/04/13 00:37:38;;;;;;;2.05;1.92;;;;;;;-3.45;94.74;93941.63;2097899;28;20477;-83
2021/04/13 00:38:41;;;;;;;1.83;1.70;;;;;;;-3.48;94.82;93937.00;2106384;28;21375;-82
2021/04/13 00:39:42;;;;;;;1.90;1.80;;;;;;;-3.44;95.17;93935.31;2106442;28;20024;-84
2021/04/13 00:40:47;;;;;;;1.80;1.70;;;;;;;-3.45;95.48;93940.84;2097818;28;20431;-82
2021/04/13 00:41:51;;;;;;;1.73;1.63;;;;;;;-3.51;95.30;93942.06;2090744;28;20406;-82
2021/04/13 00:42:59;;;;;;;1.77;1.67;;;;;;;-3.51;95.34;93942.84;2106359;28;20519;-84
2021/04/13 00:44:05;;;;;;;1.70;1.60;;;;;;;-3.52;94.61;93941.28;2097397;28;20427;-83
2021/04/13 00:45:24;;;;;;;2.00;1.90;;;;;;;-3.48;93.81;93944.06;2104123;28;20471;-84
2021/04/13 00:46:31;;;;;;;2.08;1.80;;;;;;;-3.46;93.42;93940.09;2106505;28;20488;-84
2021/04/13 00:47:35;;;;;;;1.88;1.77;;;;;;;-3.45;93.00;93941.63;2112741;28;20424;-83
2021/04/13 00:48:40;;;;;;;1.98;1.85;;;;;;;-3.45;92.94;93930.41;2114733;28;20434;-84
2021/04/13 00:49:46;;;;;;;1.77;1.67;;;;;;;-3.48;93.18;93947.44;2106663;28;20439;-82
2021/04/13 00:50:49;;;;;;;1.98;1.88;;;;;;;-3.45;93.04;93944.22;2106788;28;20488;-83
2021/04/13 00:51:54;;;;;;;1.80;1.70;;;;;;;-3.51;94.08;93942.06;2089867;28;20521;-85
2021/04/13 00:52:56;;;;;;;2.08;1.98;;;;;;;-3.54;94.47;93943.44;2090593;28;20509;-83
2021/04/13 00:54:04;;;;;;;2.10;2.00;;;;;;;-3.60;94.62;93945.44;2091138;28;20442;-85
2021/04/13 00:55:17;;;;;;;1.75;1.65;;;;;;;-3.61;94.58;93945.75;2090328;28;20442;-85
2021/04/13 00:56:19;;;;;;;1.83;1.73;;;;;;;-3.60;93.97;93949.88;2088858;28;20447;-85
2021/04/13 00:57:42;;;;;;;2.00;1.90;;;;;;;-3.61;94.05;93943.13;2089636;28;20515;-84
2021/04/13 00:58:48;;;;;;;1.60;1.50;;;;;;;-3.70;93.45;93945.72;2103781;28;20453;-83
2021/04/13 00:59:50;;;;;;;1.63;1.52;;;;;;;-3.61;93.91;93937.91;2098537;28;20458;-82
2021/04/13 01:01:00;;;;;;;1.80;1.70;;;;;;;-3.63;93.75;93943.44;2089622;28;20439;-85
2021/04/13 01:02:14;;;;;;;1.77;1.67;;;;;;;-3.65;94.51;93942.19;2091859;28;20955;-83
2021/04/13 01:03:16;;;;;;;1.85;1.75;;;;;;;-3.64;95.04;93946.38;2093136;28;20059;-83
2021/04/13 01:04:19;;;;;;;1.70;1.60;;;;;;;-3.72;94.74;93945.28;2106171;28;20438;-82
2021/04/13 01:05:20;;;;;;;1.77;1.67;;;;;;;-3.71;93.89;93932.97;2105952;28;20489;-84
2021/04/13 01:06:24;;;;;;;1.90;1.80;;;;;;;-3.75;94.51;93945.13;2090728;28;20467;-84
2021/04/13 01:07:44;;;;;;;1.70;1.60;;;;;;;-3.71;94.72;93935.59;2087236;28;20453;-84
2021/04/13 01:08:45;;;;;;;1.60;1.50;;;;;;;-3.69;94.71;93941.28;2092059;28;20534;-85
2021/04/13 01:09:51;;;;;;;1.92;1.83;;;;;;;-3.77;95.12;93937.59;2097665;28;20071;-84
2021/04/13 01:10:54;;;;;;;2.08;1.95;;;;;;;-3.74;94.66;93950.03;2106057;28;20020;-84
2021/04/13 01:12:03;;;;;;;1.42;1.35;;;;;;;-3.71;93.52;93940.81;2089701;28;20450;-83
2021/04/13 01:13:21;;;;;;;1.77;1.67;;;;;;;-3.80;94.37;93941.56;2099996;28;20474;-83
2021/04/13 01:14:25;;;;;;;2.22;1.73;;;;;;;-3.74;94.00;93931.75;2106064;28;20065;-82
2021/04/13 01:15:26;;;;;;;1.70;1.60;;;;;;;-3.76;94.91;93936.50;2099605;28;20439;-83
2021/04/13 01:16:48;;;;;;;2.70;1.90;;;;;;;-3.78;95.23;93943.88;2106036;28;20505;-84
2021/04/13 01:17:48;;;;;;;1.92;1.60;;;;;;;-3.77;94.30;93931.59;2114451;28;20027;-83
2021/04/13 01:18:54;;;;;;;1.67;1.58;;;;;;;-3.88;94.42;93941.56;2097703;28;20859;-85
2021/04/13 01:20:06;;;;;;;2.47;1.60;;;;;;;-3.94;94.58;93940.94;2090811;28;20035;-85
2021/04/13 01:21:42;;;;;;;1.90;1.80;;;;;;;-3.90;94.31;93935.88;2098951;28;20894;-85
2021/04/13 01:24:07;;;;;;;1.65;1.52;;;;;;;-3.76;93.23;93933.91;2114423;28;20433;-83
2021/04/13 01:25:29;;;;;;;1.60;1.33;;;;;;;-3.84;93.35;93935.41;2105826;28;20504;-82
2021/04/13 01:26:33;;;;;;;1.55;1.45;;;;;;;-3.96;92.68;93942.28;2102113;28;20442;-83
2021/04/13 01:27:34;;;;;;;1.60;1.50;;;;;;;-4.00;93.33;93938.75;2098101;28;20427;-84
2021/04/13 01:28:38;;;;;;;1.60;1.50;;;;;;;-3.94;93.85;93937.56;2114495;28;20907;-83
2021/04/13 01:29:41;;;;;;;1.55;1.45;;;;;;;-3.91;94.21;93940.31;2106020;28;20525;-82
2021/04/13 01:30:46;;;;;;;1.73;1.63;;;;;;;-4.00;93.32;93936.13;2089752;28;20481;-83
2021/04/13 01:31:53;;;;;;;1.70;1.60;;;;;;;-4.03;93.31;93939.38;2098500;28;20462;-82
2021/04/13 01:32:54;;;;;;;1.60;1.50;;;;;;;-4.05;93.08;93939.66;2115114;27;21326;-84
2021/04/13 01:33:55;;;;;;;1.55;1.45;;;;;;;-4.08;93.16;93943.66;2113408;28;20426;-83
2021/04/13 01:35:07;;;;;;;1.75;1.60;;;;;;;-4.10;94.29;93945.03;2106019;28;20530;-83
2021/04/13 01:36:45;;;;;;;1.63;1.52;;;;;;;-4.15;94.99;93945.16;2102069;28;21024;-82
2021/04/13 01:39:22;;;;;;;1.50;1.40;;;;;;;-4.03;95.41;93940.16;2092170;28;20765;-84
2021/04/13 01:40:44;;;;;;;1.95;1.75;;;;;;;-4.04;94.51;93949.03;2096472;28;20573;-85
2021/04/13 01:42:55;;;;;;;1.55;1.45;;;;;;;-4.17;94.34;93945.47;2101396;27;21033;-84
2021/04/13 01:43:57;;;;;;;1.60;1.50;;;;;;;-4.08;94.14;93948.88;2114247;28;20434;-83
2021/04/13 01:45:03;;;;;;;1.67;1.58;;;;;;;-4.09;94.23;93941.34;2097492;28;20040;-84
2021/04/13 01:46:05;;;;;;;1.80;1.70;;;;;;;-4.09;93.53;93942.09;2100385;28;20915;-83
2021/04/13 01:47:07;;;;;;;1.70;1.60;;;;;;;-4.10;94.29;93940.56;2114217;28;20433;-83
2021/04/13 01:48:13;;;;;;;1.67;1.58;;;;;;;-4.12;95.13;93942.72;2100467;28;20799;-84
2021/04/13 01:49:14;;;;;;;1.85;1.73;;;;;;;-4.14;94.89;93937.03;2103675;28;21120;-82
2021/04/13 01:50:14;;;;;;;1.60;1.50;;;;;;;-4.08;94.46;93935.84;2105962;28;20555;-82
2021/04/13 01:51:15;;;;;;;1.83;1.70;;;;;;;-4.11;94.03;93933.81;2109749;28;20016;-84
2021/04/13 01:52:27;;;;;;;1.98;1.58;;;;;;;-4.11;94.20;93938.28;2105663;28;20031;-84
2021/04/13 01:53:34;;;;;;;2.08;1.92;;;;;;;-4.09;94.40;93934.28;2092464;28;20024;-84
2021/04/13 01:54:37;;;;;;;1.88;1.70;;;;;;;-4.16;94.16;93944.41;2098218;28;20933;-84
2021/04/13 01:55:46;;;;;;;1.60;1.50;;;;;;;-4.21;94.58;93935.94;2089153;28;20428;-83
2021/04/13 01:57:10;;;;;;;1.70;1.60;;;;;;;-4.16;94.07;93939.19;2090766;28;21043;-84
2021/04/13 01:58:37;;;;;;;1.63;1.52;;;;;;;-4.11;94.08;93936.44;2095419;28;20067;-86
2021/04/13 01:59:49;;;;;;;1.70;1.50;;;;;;;-4.11;93.94;93941.66;2103917;28;20483;-83
2021/04/13 02:00:53;;;;;;;1.40;1.30;;;;;;;-4.13;93.53;93938.56;2084170;28;20451;-83
2021/04/13 02:01:58;;;;;;;1.90;1.80;;;;;;;-4.18;94.63;93940.53;2090289;28;20537;-84
2021/04/13 02:04:43;;;;;;;1.90;1.70;;;;;;;-4.33;93.68;93939.88;2148029;27;20115;-81
2021/04/13 02:05:49;;;;;;;1.80;1.70;;;;;;;-4.34;94.08;93942.81;2121706;28;20031;-81
2021/04/13 02:07:00;;;;;;;1.67;1.58;;;;;;;-4.33;93.72;93937.28;2110836;27;20842;-81
2021/04/13 02:08:20;;;;;;;1.63;1.52;;;;;;;-4.34;93.45;93935.75;2114384;28;20970;-82
2021/04/13 02:10:46;;;;;;;1.75;1.65;;;;;;;-4.30;93.83;93933.31;2116673;27;20107;-81
2021/04/13 02:11:47;;;;;;;1.60;1.50;;;;;;;-4.25;94.77;93943.59;2114411;28;20466;-81
2021/04/13 02:12:50;;;;;;;1.90;1.80;;;;;;;-4.22;94.30;93939.59;2104440;28;20835;-80
2021/04/13 02:14:01;;;;;;;1.50;1.40;;;;;;;-4.23;93.60;93938.84;2097381;28;20028;-82
2021/04/13 02:15:01;;;;;;;1.65;1.45;;;;;;;-4.32;92.62;93936.19;2114810;27;20450;-80
2021/04/13 02:16:15;;;;;;;1.90;1.77;;;;;;;-4.32;93.39;93940.66;2113068;28;20448;-81
2021/04/13 02:17:24;;;;;;;1.60;1.48;;;;;;;-4.33;93.16;93944.34;2107759;28;20020;-81
2021/04/13 02:18:34;;;;;;;1.55;1.45;;;;;;;-4.31;92.74;93934.34;2103839;28;21017;-82
2021/04/13 02:19:36;;;;;;;1.40;1.30;;;;;;;-4.34;93.89;93935.75;2121906;27;20074;-83
2021/04/13 02:20:43;;;;;;;1.60;1.50;;;;;;;-4.34;94.22;93943.56;2114804;28;20034;-81
2021/04/13 02:21:49;;;;;;;1.73;1.63;;;;;;;-4.32;94.28;93943.25;2106300;28;20454;-82
2021/04/13 02:22:51;;;;;;;2.10;1.48;;;;;;;-4.41;93.11;93943.22;2105158;28;20442;-81
2021/04/13 02:23:54;;;;;;;2.38;1.48;;;;;;;-4.38;93.15;93939.25;2096418;28;20527;-82
2021/04/13 02:25:01;;;;;;;1.88;1.70;;;;;;;-4.41;92.14;93945.06;2106663;27;20468;-81
2021/04/13 02:26:05;;;;;;;1.70;1.60;;;;;;;-4.44;93.03;93938.59;2121482;28;20429;-82
2021/04/13 02:27:14;;;;;;;1.40;1.30;;;;;;;-4.50;93.77;93937.22;2113053;28;20437;-83
2021/04/13 02:28:19;;;;;;;1.73;1.63;;;;;;;-4.51;94.82;93938.28;2114082;28;20445;-81
2021/04/13 02:29:26;;;;;;;1.90;1.40;;;;;;;-4.50;94.53;93944.28;2104969;28;20456;-81
2021/04/13 02:30:35;;;;;;;2.90;1.60;;;;;;;-4.50;93.91;93934.59;2114635;27;20507;-82
2021/04/13 02:31:37;;;;;;;1.70;1.60;;;;;;;-4.50;94.55;93933.84;2114015;28;20514;-81
2021/04/13 02:32:44;;;;;;;1.63;1.52;;;;;;;-4.46;93.31;93940.00;2104428;28;20476;-83
2021/04/13 02:33:45;;;;;;;1.50;1.40;;;;;;;-4.45;93.37;93936.31;2113724;28;20557;-81
2021/04/13 02:34:49;;;;;;;1.73;1.63;;;;;;;-4.47;92.55;93931.41;2120980;28;20504;-83
2021/04/13 02:35:49;;;;;;;1.88;1.77;;;;;;;-4.40;92.27;93933.56;2104967;28;20028;-82
2021/04/13 02:36:55;;;;;;;1.63;1.52;;;;;;;-4.37;92.31;93936.34;2112303;28;20453;-81
2021/04/13 02:37:59;;;;;;;1.50;1.40;;;;;;;-4.42;92.65;93935.72;2097177;28;20017;-82
2021/04/13 02:39:01;;;;;;;1.58;1.48;;;;;;;-4.47;92.96;93935.84;2096867;28;20978;-81
2021/04/13 02:40:13;;;;;;;1.85;1.27;;;;;;;-4.49;93.74;93932.75;2113028;28;20450;-83
2021/04/13 02:41:39;;;;;;;1.60;1.50;;;;;;;-4.43;93.41;93932.34;2115986;27;20985;-82
2021/04/13 02:42:52;;;;;;;1.50;1.40;;;;;;;-4.43;92.67;93939.41;2116325;28;20480;-82
2021/04/13 02:43:55;;;;;;;2.53;1.75;;;;;;;-4.50;94.16;93941.66;2099781;28;20525;-81
2021/04/13 02:45:03;;;;;;;1.88;1.75;;;;;;;-4.54;95.55;93935.50;2113459;27;20468;-82
2021/04/13 02:46:08;;;;;;;1.88;1.50;;;;;;;-4.52;96.67;93936.75;2115712;27;20574;-83
2021/04/13 02:47:14;;;;;;;1.67;1.58;;;;;;;-4.56;95.28;93944.41;2113162;28;20802;-82
2021/04/13 02:48:21;;;;;;;1.52;1.42;;;;;;;-4.60;93.96;93946.06;2114317;27;20433;-81
2021/04/13 02:49:24;;;;;;;1.40;1.30;;;;;;;-4.57;93.86;93942.06;2122010;27;20449;-83
2021/04/13 02:50:25;;;;;;;1.73;1.63;;;;;;;-4.60;93.87;93945.31;2121453;27;20586;-82
2021/04/13 02:51:26;;;;;;;1.58;1.38;;;;;;;-4.57;93.46;93942.84;2112724;28;20508;-81
2021/04/13 02:52:35;;;;;;;1.80;1.70;;;;;;;-4.63;94.32;93938.84;2104179;28;20024;-82
2021/04/13 02:53:41;;;;;;;2.22;1.60;;;;;;;-4.64;95.49;93944.34;2115006;27;20106;-82
2021/04/13 02:54:50;;;;;;;1.60;1.50;;;;;;;-4.69;95.81;93942.66;2120957;28;21423;-84
2021/04/13 02:55:53;;;;;;;1.60;1.50;;;;;;;-4.75;94.81;93941.22;2105562;28;20446;-82
2021/04/13 02:56:58;;;;;;;1.55;1.45;;;;;;;-4.68;94.02;93952.00;2113390;27;20965;-81
2021/04/13 02:58:03;;;;;;;1.70;1.58;;;;;;;-4.66;93.92;93942.03;2111813;28;20465;-82
2021/04/13 02:59:06;;;;;;;1.40;1.30;;;;;;;-4.61;93.93;93935.91;2098815;28;20474;-83
2021/04/13 03:00:16;;;;;;;1.50;1.40;;;;;;;-4.56;94.21;93954.06;2113191;28;20433;-81
2021/04/13 03:01:22;;;;;;;1.73;1.63;;;;;;;-4.62;93.45;93944.81;2109430;28;20458;-81
2021/04/13 03:02:28;;;;;;;1.60;1.50;;;;;;;-4.63;93.34;93954.47;2113721;27;20506;-82
2021/04/13 03:03:35;;;;;;;1.42;1.33;;;;;;;-4.64;93.78;93945.13;2113369;28;20561;-81
2021/04/13 03:04:48;;;;;;;1.60;1.50;;;;;;;-4.69;95.60;93947.88;2112235;27;21393;-82
2021/04/13 03:05:55;;;;;;;1.40;1.30;;;;;;;-4.76;95.18;93950.13;2112273;28;20817;-80
2021/04/13 03:06:58;;;;;;;1.52;1.42;;;;;;;-4.76;95.18;93947.50;2111546;27;20425;-82
2021/04/13 03:08:04;;;;;;;1.40;1.30;;;;;;;-4.77;94.99;93947.81;2111567;28;20445;-81
2021/04/13 03:09:07;;;;;;;1.50;1.40;;;;;;;-4.79;93.61;93945.50;2099095;28;20439;-80
2021/04/13 03:10:11;;;;;;;1.92;1.60;;;;;;;-4.74;94.09;93953.22;2104553;28;20450;-82
2021/04/13 03:11:16;;;;;;;1.60;1.50;;;;;;;-4.73;93.84;93952.13;2104686;28;20450;-81
2021/04/13 03:12:18;;;;;;;3.30;1.50;;;;;;;-4.73;94.38;93948.75;2105369;28;20442;-81
2021/04/13 03:13:21;;;;;;;1.85;1.73;;;;;;;-4.69;93.91;93950.47;2116943;28;20433;-81
2021/04/13 03:14:23;;;;;;;1.60;1.50;;;;;;;-4.73;94.24;93946.16;2109014;28;20996;-80
2021/04/13 03:15:27;;;;;;;1.60;1.50;;;;;;;-4.91;93.19;93947.91;2118868;28;20449;-81
2021/04/13 03:16:38;;;;;;;1.63;1.52;;;;;;;-4.73;93.11;93954.75;2094475;28;20447;-81
2021/04/13 03:17:44;;;;;;;1.52;1.42;;;;;;;-4.72;92.39;93945.84;2108146;27;20438;-82
2021/04/13 03:18:52;;;;;;;2.28;1.45;;;;;;;-4.75;93.34;93946.44;2108373;28;20434;-82
2021/04/13 03:20:01;;;;;;;1.50;1.38;;;;;;;-4.76;93.73;93951.97;2099906;28;20434;-82
2021/04/13 03:21:33;;;;;;;2.10;1.60;;;;;;;-4.70;92.40;93942.94;2099777;28;20435;-81
2021/04/13 03:22:37;;;;;;;1.58;1.38;;;;;;;-4.73;92.68;93941.72;2096638;28;20843;-83
2021/04/13 03:23:39;;;;;;;1.80;1.70;;;;;;;-4.77;92.90;93948.59;2109732;27;20471;-81
2021/04/13 03:24:43;;;;;;;1.58;1.48;;;;;;;-4.74;93.25;93942.78;2107139;28;20442;-81
2021/04/13 03:25:53;;;;;;;1.33;1.23;;;;;;;-4.86;93.05;93940.72;2108706;27;20461;-82
2021/04/13 03:26:58;;;;;;;1.38;1.27;;;;;;;-4.84;92.30;93941.16;2108406;27;20525;-81
2021/04/13 03:28:04;;;;;;;1.45;1.35;;;;;;;-4.86;93.11;93945.94;2105111;28;20979;-81
2021/04/13 03:29:21;;;;;;;1.38;1.27;;;;;;;-4.78;92.40;93946.25;2106283;28;20466;-82
2021/04/13 03:30:26;;;;;;;1.60;1.50;;;;;;;-4.74;92.59;93952.41;2105653;28;20466;-81
2021/04/13 03:31:32;;;;;;;1.58;1.48;;;;;;;-4.78;92.41;93947.06;2103886;28;20466;-81
2021/04/13 03:32:39;;;;;;;1.40;1.30;;;;;;;-4.82;92.30;93949.47;2101849;28;20431;-80
2021/04/13 03:33:42;;;;;;;2.00;1.40;;;;;;;-4.81;92.98;93947.63;2104122;28;20443;-80
2021/04/13 03:34:45;;;;;;;1.63;1.42;;;;;;;-4.82;91.25;93952.09;2112165;28;20421;-81
2021/04/13 03:35:47;;;;;;;1.40;1.30;;;;;;;-4.84;92.24;93948.22;2110251;28;20450;-81
2021/04/13 03:36:53;;;;;;;1.30;1.20;;;;;;;-4.86;91.35;93951.13;2096858;28;20451;-81
2021/04/13 03:37:59;;;;;;;1.48;1.38;;;;;;;-4.76;92.43;93950.13;2113021;27;20426;-81
2021/04/13 03:39:20;;;;;;;1.60;1.50;;;;;;;-4.86;92.20;93950.38;2120831;27;20442;-82
2021/04/13 03:40:25;;;;;;;1.92;1.67;;;;;;;-4.86;94.25;93955.59;2110815;28;20449;-81
2021/04/13 03:41:26;;;;;;;1.70;1.60;;;;;;;-4.88;93.82;93950.66;2102611;28;20415;-82
2021/04/13 03:42:31;;;;;;;1.50;1.40;;;;;;;-4.90;93.75;93946.81;2115644;28;20511;-83
2021/04/13 03:43:35;;;;;;;1.60;1.50;;;;;;;-4.89;94.00;93950.97;2112005;27;20523;-82
2021/04/13 03:44:40;;;;;;;2.20;1.20;;;;;;;-4.86;93.33;93955.59;2120469;27;20434;-81
2021/04/13 03:45:44;;;;;;;1.40;1.30;;;;;;;-4.77;92.18;93953.81;2115561;28;20627;-82
2021/04/13 03:46:47;;;;;;;1.77;1.55;;;;;;;-4.79;90.96;93953.31;2109052;28;20446;-81
2021/04/13 03:47:48;;;;;;;1.40;1.30;;;;;;;-4.85;90.71;93957.13;2111344;28;20450;-81
2021/04/13 03:48:52;;;;;;;1.40;1.30;;;;;;;-4.84;90.98;93949.00;2109885;28;20536;-81
2021/04/13 03:49:55;;;;;;;1.80;1.60;;;;;;;-4.97;91.65;93952.44;2101889;28;20837;-81
2021/04/13 03:51:04;;;;;;;1.60;1.50;;;;;;;-4.92;92.24;93949.72;2101650;28;20443;-81
2021/04/13 03:52:10;;;;;;;2.05;1.35;;;;;;;-4.88;92.19;93953.25;2100502;28;20442;-81
2021/04/13 03:53:17;;;;;;;2.45;1.45;;;;;;;-4.83;93.76;93954.97;2102846;28;20443;-82
2021/04/13 03:54:25;;;;;;;1.70;1.60;;;;;;;-4.81;92.42;93951.00;2109233;28;20969;-81
2021/04/13 03:55:27;;;;;;;1.73;1.52;;;;;;;-4.84;93.00;93953.44;2098952;28;20851;-82
2021/04/13 03:56:28;;;;;;;1.35;1.25;;;;;;;-4.83;92.54;93949.75;2099242;28;20466;-81
2021/04/13 03:57:37;;;;;;;1.55;1.40;;;;;;;-4.82;91.71;93951.31;2101237;28;20455;-82
2021/04/13 03:58:58;;;;;;;2.28;1.63;;;;;;;-4.77;92.23;93951.19;2105604;28;20028;-82
2021/04/13 04:00:00;;;;;;;1.92;1.30;;;;;;;-4.75;91.88;93958.72;2114313;27;21261;-81
2021/04/13 04:01:02;;;;;;;1.42;1.33;;;;;;;-4.75;91.91;93951.66;2109368;28;20501;-81
2021/04/13 04:02:07;;;;;;;1.40;1.23;;;;;;;-4.75;92.58;93951.66;2093638;28;20446;-81
2021/04/13 04:03:07;;;;;;;1.40;1.30;;;;;;;-4.72;92.18;93947.69;2096429;28;20441;-81
2021/04/13 04:04:20;;;;;;;1.70;1.60;;;;;;;-4.76;91.89;93951.97;2110299;28;20905;-80
2021/04/13 04:05:29;;;;;;;2.13;1.85;;;;;;;-4.72;91.89;93953.66;2112238;28;20024;-80
2021/04/13 04:07:03;;;;;;;2.35;1.70;;;;;;;-4.71;92.77;93952.59;2103859;28;20482;-81
2021/04/13 04:08:20;;;;;;;1.70;1.60;;;;;;;-4.71;93.18;93950.00;2106789;28;20500;-80
2021/04/13 04:09:35;;;;;;;4.10;1.50;;;;;;;-4.78;92.86;93954.88;2098539;28;20435;-81
2021/04/13 04:10:49;;;;;;;1.77;1.67;;;;;;;-4.66;92.08;93957.69;2098696;28;20555;-81
2021/04/13 04:11:51;;;;;;;1.52;1.42;;;;;;;-4.65;91.93;93954.03;2098148;28;21010;-81
2021/04/13 04:13:06;;;;;;;1.90;1.80;;;;;;;-4.65;92.66;93955.88;2103279;28;20436;-81
2021/04/13 04:14:20;;;;;;;1.75;1.50;;;;;;;-4.64;92.13;93952.94;2117276;28;20513;-82
2021/04/13 04:15:29;;;;;;;1.67;1.58;;;;;;;-4.63;92.57;93962.31;2108193;28;20445;-80
2021/04/13 04:16:29;;;;;;;1.25;1.15;;;;;;;-4.72;92.67;93958.88;2110667;28;20439;-80
2021/04/13 04:17:35;;;;;;;1.70;1.60;;;;;;;-4.66;92.41;93956.91;2098658;28;20451;-81
2021/04/13 04:18:49;;;;;;;1.58;1.48;;;;;;;-4.62;93.12;93953.41;2101481;28;20063;-81
2021/04/13 04:20:01;;;;;;;1.55;1.45;;;;;;;-4.56;92.21;93954.84;2106569;28;20442;-82
2021/04/13 04:21:39;;;;;;;1.63;1.52;;;;;;;-4.54;92.94;93959.75;2086554;28;20786;-81
2021/04/13 04:23:06;;;;;;;1.70;1.60;;;;;;;-4.54;93.81;93956.38;2101887;28;20434;-81
2021/04/13 04:24:28;;;;;;;1.42;1.33;;;;;;;-4.49;93.78;93953.63;2074699;28;20491;-80
2021/04/13 04:25:43;;;;;;;1.40;1.30;;;;;;;-4.50;92.56;93959.91;2098467;28;20599;-82
2021/04/13 04:26:47;;;;;;;1.50;1.40;;;;;;;-4.46;93.86;93959.03;2097333;28;21218;-83
2021/04/13 04:27:53;;;;;;;2.05;1.40;;;;;;;-4.42;93.38;93954.75;2093997;28;20469;-82
2021/04/13 04:29:14;;;;;;;1.70;1.60;;;;;;;-4.40;93.82;93954.44;2102298;27;20425;-82
2021/04/13 04:30:31;;;;;;;2.65;1.55;;;;;;;-4.39;93.97;93956.75;2106446;28;20465;-81
2021/04/13 04:31:37;;;;;;;1.77;1.65;;;;;;;-4.37;94.52;93961.66;2105263;28;20988;-81
2021/04/13 04:32:43;;;;;;;1.52;1.42;;;;;;;-4.43;94.48;93962.88;2102609;28;20447;-81
2021/04/13 04:33:47;;;;;;;1.50;1.40;;;;;;;-4.44;95.79;93963.94;2117350;28;20814;-81
2021/04/13 04:34:55;;;;;;;1.88;1.50;;;;;;;-4.47;95.35;93964.53;2111140;28;20454;-82
2021/04/13 04:36:02;;;;;;;1.88;1.77;;;;;;;-4.37;95.32;93959.06;2096720;28;20454;-81
2021/04/13 04:37:20;;;;;;;1.98;1.40;;;;;;;-4.37;95.44;93962.44;2099936;28;20454;-80
2021/04/13 04:38:39;;;;;;;1.83;1.73;;;;;;;-4.27;94.47;93965.84;2105697;28;21010;-82
2021/04/13 04:39:40;;;;;;;1.60;1.40;;;;;;;-4.27;94.17;93961.38;2104044;28;20435;-81
2021/04/13 04:40:54;;;;;;;1.98;1.67;;;;;;;-4.18;93.94;93961.44;2092329;28;20447;-81
2021/04/13 04:42:06;;;;;;;1.98;1.65;;;;;;;-4.21;94.05;93959.44;2110681;27;20441;-81
2021/04/13 04:43:13;;;;;;;1.60;1.50;;;;;;;-4.22;94.57;93963.88;2102048;28;20483;-82
2021/04/13 04:44:29;;;;;;;1.77;1.45;;;;;;;-4.15;95.09;93964.22;2104981;27;20466;-82
2021/04/13 04:45:35;;;;;;;1.83;1.73;;;;;;;-4.09;95.49;93968.22;2100789;28;20977;-81
2021/04/13 04:46:42;;;;;;;2.40;1.55;;;;;;;-4.12;96.25;93968.06;2098463;28;20450;-83
2021/04/13 04:47:45;;;;;;;1.50;1.40;;;;;;;-4.24;95.45;93966.03;2090929;28;20443;-81
2021/04/13 04:49:04;;;;;;;2.58;1.67;;;;;;;-4.17;95.40;93968.97;2099787;28;20446;-81
2021/04/13 04:50:07;;;;;;;2.00;1.73;;;;;;;-4.14;95.48;93965.75;2106922;28;20474;-83
2021/04/13 04:51:11;;;;;;;1.65;1.55;;;;;;;-4.05;95.38;93965.78;2102154;28;20555;-82
2021/04/13 04:52:12;;;;;;;1.58;1.40;;;;;;;-4.06;95.03;93972.84;2094221;28;20450;-82
2021/04/13 04:53:14;;;;;;;1.83;1.67;;;;;;;-4.09;95.01;93968.22;2103465;28;20434;-82
2021/04/13 04:54:14;;;;;;;1.70;1.60;;;;;;;-4.13;95.47;93972.50;2114565;28;20022;-81
2021/04/13 04:55:15;;;;;;;2.28;1.60;;;;;;;-4.15;95.25;93974.66;2100383;28;20596;-81
2021/04/13 04:56:16;;;;;;;1.90;1.70;;;;;;;-4.10;95.70;93974.50;2105963;28;20052;-82
2021/04/13 04:57:16;;;;;;;2.65;1.77;;;;;;;-4.11;95.36;93974.81;2097452;28;20882;-82
2021/04/13 04:58:17;;;;;;;1.92;1.77;;;;;;;-4.11;95.90;93974.81;2104067;28;20033;-82
2021/04/13 04:59:18;;;;;;;1.67;1.58;;;;;;;-4.07;96.18;93968.69;2097627;28;20028;-82
2021/04/13 05:00:20;;;;;;;2.17;1.98;;;;;;;-4.06;95.33;93983.28;2104226;28;20028;-81
2021/04/13 05:01:20;;;;;;;1.65;1.55;;;;;;;-4.04;95.44;93975.13;2107848;28;20027;-83
2021/04/13 05:02:21;;;;;;;1.83;1.73;;;;;;;-3.97;95.86;93975.47;2104116;28;20465;-82
2021/04/13 05:03:23;;;;;;;2.03;1.83;;;;;;;-3.96;95.63;93977.00;2106389;28;20049;-81
2021/04/13 05:04:23;;;;;;;1.75;1.48;;;;;;;-3.93;95.62;93978.25;2115316;27;20046;-82
2021/04/13 05:05:24;;;;;;;1.85;1.67;;;;;;;-3.93;95.55;93976.41;2113310;28;20462;-81
2021/04/13 05:06:24;;;;;;;1.70;1.60;;;;;;;-4.00;96.08;93977.91;2107600;28;20427;-82
2021/04/13 05:07:25;;;;;;;2.78;2.00;;;;;;;-3.98;96.16;93981.00;2105598;28;20084;-82
2021/04/13 05:08:26;;;;;;;2.50;1.85;;;;;;;-4.06;96.52;93980.66;2106202;28;20387;-80
2021/04/13 05:09:26;;;;;;;1.95;1.73;;;;;;;-3.98;97.38;93970.56;2114488;28;20114;-84
2021/04/13 05:10:27;;;;;;;1.70;1.60;;;;;;;-3.93;96.86;93980.88;2113088;28;20114;-80
2021/04/13 05:11:27;;;;;;;1.88;1.77;;;;;;;-3.91;96.42;93984.69;2110374;28;20472;-82
2021/04/13 05:12:28;;;;;;;1.55;1.45;;;;;;;-3.89;96.19;93981.81;2102136;28;20032;-81
2021/04/13 05:13:29;;;;;;;1.75;1.65;;;;;;;-3.88;95.92;93988.56;2105642;28;20031;-82
2021/04/13 05:14:30;;;;;;;3.25;1.77;;;;;;;-3.88;96.28;93981.50;2106307;28;20369;-82
2021/04/13 05:15:31;;;;;;;1.60;1.50;;;;;;;-3.83;96.25;93980.56;2118065;27;20483;-82
2021/04/13 05:16:32;;;;;;;1.80;1.70;;;;;;;-3.77;95.19;93994.28;2110376;28;20055;-83
2021/04/13 05:17:32;;;;;;;1.80;1.70;;;;;;;-3.75;95.28;93981.69;2105587;28;20493;-81
2021/04/13 05:18:33;;;;;;;2.00;1.80;;;;;;;-3.64;95.10;93983.72;2097742;28;20028;-82
2021/04/13 05:19:33;;;;;;;1.70;1.60;;;;;;;-3.62;95.71;93986.00;2097126;28;20029;-81
2021/04/13 05:20:34;;;;;;;2.92;1.95;;;;;;;-3.60;95.86;93991.69;2097839;28;20051;-82
2021/04/13 05:21:34;;;;;;;1.80;1.70;;;;;;;-3.61;96.67;93992.75;2105611;28;20030;-81
2021/04/13 05:22:35;;;;;;;1.77;1.67;;;;;;;-3.65;97.35;93987.38;2105822;28;20177;-81